createdAt,value
2022-09-24T00:02:11.703Z,7.33
2022-09-24T00:07:15.369Z,7.25
2022-09-24T00:12:22.396Z,7.17
2022-09-24T00:17:26.132Z,7.12
2022-09-24T00:22:30.132Z,7.11
2022-09-24T00:27:35.468Z,7.06
2022-09-24T00:32:39.078Z,6.99
2022-09-24T00:37:42.814Z,6.88
2022-09-24T00:42:48.000Z,6.76
2022-09-24T00:47:52.939Z,6.62
2022-09-24T00:53:00.276Z,6.48
2022-09-24T00:58:08.433Z,6.44
2022-09-24T01:03:15.611Z,6.37
2022-09-24T01:08:21.184Z,6.26
2022-09-24T01:13:48.481Z,6.22
2022-09-24T01:19:00.921Z,6.19
2022-09-24T01:24:25.277Z,6.13
2022-09-24T01:29:50.208Z,6.12
2022-09-24T01:35:00.110Z,6.13
2022-09-24T01:40:06.394Z,6.01
2022-09-24T01:45:13.051Z,6.00
2022-09-24T01:50:18.743Z,6.01
2022-09-24T01:55:29.873Z,6.06
2022-09-24T02:00:35.116Z,6.04
2022-09-24T02:05:45.534Z,5.99
2022-09-24T02:10:55.923Z,6.06
2022-09-24T02:16:05.771Z,6.10
2022-09-24T02:21:12.514Z,6.03
2022-09-24T02:26:16.316Z,6.07
2022-09-24T02:31:27.418Z,6.05
2022-09-24T02:36:31.550Z,6.00
2022-09-24T02:41:36.150Z,5.99
2022-09-24T02:46:41.987Z,5.92
2022-09-24T02:51:46.016Z,5.89
2022-09-24T02:56:50.129Z,5.99
2022-09-24T03:01:57.877Z,6.03
2022-09-24T03:07:01.594Z,6.11
2022-09-24T03:12:05.328Z,6.17
2022-09-24T03:17:10.285Z,6.31
2022-09-24T03:22:13.970Z,6.23
2022-09-24T03:27:17.966Z,6.04
2022-09-24T03:32:22.867Z,6.05
2022-09-24T03:37:26.477Z,6.01
2022-09-24T03:42:30.202Z,5.94
2022-09-24T03:47:35.898Z,5.95
2022-09-24T03:52:39.750Z,5.86
2022-09-24T03:57:43.522Z,5.95
2022-09-24T04:02:48.655Z,5.96
2022-09-24T04:07:52.169Z,6.00
2022-09-24T04:12:55.940Z,6.10
2022-09-24T04:18:01.476Z,5.99
2022-09-24T04:23:05.303Z,5.91
2022-09-24T04:28:10.559Z,5.99
2022-09-24T04:33:15.720Z,6.03
2022-09-24T04:38:21.634Z,6.10
2022-09-24T04:43:25.558Z,6.08
2022-09-24T04:48:31.028Z,6.20
2022-09-24T04:53:35.330Z,6.34
2022-09-24T04:58:38.929Z,6.30
2022-09-24T05:03:46.073Z,6.35
2022-09-24T05:08:49.863Z,6.30
2022-09-24T05:13:53.446Z,6.41
2022-09-24T05:18:59.088Z,6.51
2022-09-24T05:24:02.798Z,6.60
2022-09-24T05:29:06.734Z,6.52
2022-09-24T05:34:14.326Z,6.63
2022-09-24T05:39:18.028Z,6.89
2022-09-24T05:44:21.684Z,7.05
2022-09-24T05:49:26.818Z,7.17
2022-09-24T05:54:30.293Z,7.31
2022-09-24T05:59:33.701Z,7.29
2022-09-24T06:04:39.671Z,7.32
2022-09-24T06:09:44.223Z,7.36
2022-09-24T06:14:48.021Z,7.52
2022-09-24T06:19:53.803Z,7.48
2022-09-24T06:24:58.036Z,7.99
2022-09-24T06:30:02.274Z,8.07
2022-09-24T06:35:08.075Z,8.29
2022-09-24T06:40:12.453Z,8.52
2022-09-24T06:45:16.112Z,9.03
2022-09-24T06:50:21.623Z,9.50
2022-09-24T06:55:25.655Z,10.12
2022-09-24T07:00:29.965Z,10.98
2022-09-24T07:05:39.715Z,11.56
2022-09-24T07:10:49.219Z,11.66
2022-09-24T07:15:53.388Z,11.62
2022-09-24T07:20:58.317Z,12.31
2022-09-24T07:26:01.908Z,12.31
2022-09-24T07:31:05.630Z,12.09
2022-09-24T07:36:11.012Z,12.16
2022-09-24T07:41:14.530Z,12.59
2022-09-24T07:46:18.215Z,12.42
2022-09-24T07:51:23.747Z,12.98
2022-09-24T07:56:27.370Z,13.23
2022-09-24T08:01:32.536Z,13.63
2022-09-24T08:06:41.370Z,13.88
2022-09-24T08:11:48.433Z,13.84
2022-09-24T08:16:51.912Z,14.57
2022-09-24T08:21:57.710Z,15.28
2022-09-24T08:27:01.214Z,15.42
2022-09-24T08:32:05.243Z,16.06
2022-09-24T08:37:10.200Z,16.05
2022-09-24T08:42:24.898Z,16.48
2022-09-24T08:47:36.371Z,16.56
2022-09-24T08:52:58.241Z,17.08
2022-09-24T08:58:19.583Z,17.44
2022-09-24T09:03:33.351Z,17.40
2022-09-24T09:14:17.706Z,17.87
2022-09-24T09:19:26.831Z,17.80
2022-09-24T09:24:42.201Z,17.94
2022-09-24T09:29:50.144Z,18.03
2022-09-24T09:35:00.777Z,18.81
2022-09-24T09:40:21.670Z,18.20
2022-09-24T09:45:32.576Z,18.78
2022-09-24T09:50:41.040Z,18.49
2022-09-24T09:55:54.257Z,18.31
2022-09-24T10:01:07.505Z,18.41
2022-09-24T10:06:13.665Z,18.81
2022-09-24T10:11:20.232Z,18.47
2022-09-24T10:16:24.315Z,18.43
2022-09-24T10:21:34.412Z,18.67
2022-09-24T10:26:44.983Z,18.25
2022-09-24T10:31:49.949Z,18.16
2022-09-24T10:36:59.188Z,18.78
2022-09-24T10:42:05.510Z,18.68
2022-09-24T10:47:20.873Z,18.82
2022-09-24T10:52:40.067Z,20.11
2022-09-24T10:57:57.523Z,20.00
2022-09-24T11:03:36.278Z,19.25
2022-09-24T11:08:55.840Z,19.66
2022-09-24T11:14:14.414Z,19.38
2022-09-24T11:19:44.964Z,19.35
2022-09-24T11:25:10.561Z,18.73
2022-09-24T11:30:19.808Z,18.10
2022-09-24T11:35:35.784Z,17.53
2022-09-24T11:40:56.176Z,17.85
2022-09-24T11:46:17.248Z,17.98
2022-09-24T11:51:32.204Z,18.45
2022-09-24T11:56:41.131Z,19.00
2022-09-24T12:01:52.875Z,18.61
2022-09-24T12:07:04.130Z,19.02
2022-09-24T12:12:10.967Z,18.80
2022-09-24T12:17:20.187Z,18.57
2022-09-24T12:22:26.001Z,19.08
2022-09-24T12:27:35.632Z,19.44
2022-09-24T12:32:59.146Z,19.37
2022-09-24T12:38:07.271Z,19.22
2022-09-24T12:43:25.338Z,19.28
2022-09-24T12:48:32.056Z,18.74
2022-09-24T12:53:38.076Z,18.42
2022-09-24T12:58:43.798Z,18.61
2022-09-24T13:04:06.891Z,18.92
2022-09-24T13:09:35.853Z,18.73
2022-09-24T13:14:39.347Z,18.34
2022-09-24T13:19:47.041Z,18.91
2022-09-24T13:24:52.695Z,19.32
2022-09-24T13:30:08.017Z,19.40
2022-09-24T13:35:22.003Z,19.16
2022-09-24T13:40:29.931Z,19.21
2022-09-24T13:45:37.117Z,19.86
2022-09-24T13:50:50.208Z,19.30
2022-09-24T13:55:55.909Z,19.15
2022-09-24T14:01:02.963Z,19.15
2022-09-24T14:06:13.354Z,19.37
2022-09-24T14:11:19.699Z,19.20
2022-09-24T14:16:24.560Z,19.35
2022-09-24T14:21:35.037Z,19.57
2022-09-24T14:26:44.121Z,19.50
2022-09-24T14:31:50.478Z,19.20
2022-09-24T14:36:57.218Z,19.01
2022-09-24T14:42:00.744Z,19.80
2022-09-24T14:47:04.209Z,19.52
2022-09-24T14:52:29.075Z,19.59
2022-09-24T14:57:38.385Z,19.38
2022-09-24T15:02:41.909Z,19.00
2022-09-24T15:07:47.884Z,18.86
2022-09-24T15:12:52.438Z,18.70
2022-09-24T15:17:56.142Z,18.29
2022-09-24T15:23:01.946Z,18.27
2022-09-24T15:28:05.567Z,17.45
2022-09-24T15:33:12.065Z,17.39
2022-09-24T15:38:19.297Z,16.75
2022-09-24T15:43:24.484Z,16.37
2022-09-24T15:48:27.990Z,16.29
2022-09-24T15:53:33.733Z,16.01
2022-09-24T15:58:37.149Z,16.19
2022-09-24T16:03:41.101Z,15.91
2022-09-24T16:08:46.075Z,15.80
2022-09-24T16:13:50.803Z,15.91
2022-09-24T16:18:54.566Z,15.58
2022-09-24T16:24:00.647Z,15.43
2022-09-24T16:29:05.054Z,15.32
2022-09-24T16:34:08.539Z,15.17
2022-09-24T16:39:15.744Z,14.79
2022-09-24T16:44:19.387Z,14.60
2022-09-24T16:49:24.262Z,14.62
2022-09-24T16:54:31.386Z,14.24
2022-09-24T16:59:35.410Z,14.46
2022-09-24T17:04:39.833Z,13.95
2022-09-24T17:10:02.703Z,14.08
2022-09-24T17:15:07.415Z,14.20
2022-09-24T17:20:10.866Z,14.03
2022-09-24T17:25:16.076Z,13.55
2022-09-24T17:30:19.638Z,13.73
2022-09-24T17:35:23.124Z,13.61
2022-09-24T17:40:27.986Z,13.37
2022-09-24T17:45:31.653Z,13.38
2022-09-24T17:50:35.963Z,13.21
2022-09-24T17:55:49.465Z,13.16
2022-09-24T18:00:54.897Z,13.25
2022-09-24T18:06:01.658Z,13.27
2022-09-24T18:11:08.703Z,13.51
2022-09-24T18:16:13.782Z,13.41
2022-09-24T18:21:21.646Z,13.29
2022-09-24T18:26:28.714Z,13.33
2022-09-24T18:31:36.893Z,13.46
2022-09-24T18:36:43.471Z,13.26
2022-09-24T18:41:49.246Z,13.44
2022-09-24T18:46:57.269Z,13.41
2022-09-24T18:52:00.917Z,13.53
2022-09-24T18:57:06.741Z,13.39
2022-09-24T19:02:11.103Z,13.11
2022-09-24T19:07:14.661Z,13.21
2022-09-24T19:12:21.225Z,13.30
2022-09-24T19:17:25.956Z,13.06
2022-09-24T19:22:33.753Z,12.92
2022-09-24T19:27:40.900Z,12.67
2022-09-24T19:32:46.477Z,12.73
2022-09-24T19:37:50.708Z,12.52
2022-09-24T19:42:56.208Z,12.50
2022-09-24T19:48:00.376Z,12.49
2022-09-24T19:53:05.867Z,12.42
2022-09-24T19:58:12.711Z,12.07
2022-09-24T20:03:17.527Z,11.68
2022-09-24T20:08:21.248Z,11.55
2022-09-24T20:13:28.647Z,11.26
2022-09-24T20:18:34.664Z,11.33
2022-09-24T20:23:39.671Z,11.33
2022-09-24T20:28:46.629Z,11.28
2022-09-24T20:33:51.290Z,11.29
2022-09-24T20:38:55.043Z,11.35
2022-09-24T20:44:00.362Z,11.38
2022-09-24T20:49:03.932Z,11.42
2022-09-24T20:54:07.354Z,11.36
2022-09-24T20:59:14.113Z,11.28
2022-09-24T21:04:20.334Z,11.32
2022-09-24T21:09:24.394Z,11.32
2022-09-24T21:14:30.136Z,11.31
2022-09-24T21:19:36.514Z,11.31
2022-09-24T21:24:41.187Z,11.30
2022-09-24T21:29:47.144Z,10.78
2022-09-24T21:34:50.862Z,11.11
2022-09-24T21:39:55.014Z,11.14
2022-09-24T21:45:01.250Z,11.01
2022-09-24T21:50:05.546Z,11.13
2022-09-24T21:55:13.703Z,11.14
2022-09-24T22:00:19.093Z,11.22
2022-09-24T22:05:24.000Z,11.21
2022-09-24T22:10:27.604Z,11.09
2022-09-24T22:15:33.683Z,11.11
2022-09-24T22:20:43.396Z,11.03
2022-09-24T22:25:47.112Z,11.24
2022-09-24T22:30:52.850Z,11.29
2022-09-24T22:35:56.824Z,11.34
2022-09-24T22:41:01.216Z,11.30
2022-09-24T22:46:08.099Z,11.25
2022-09-24T22:51:11.583Z,11.23
2022-09-24T22:56:16.729Z,11.15
2022-09-24T23:01:23.900Z,11.14
2022-09-24T23:06:28.037Z,11.19
2022-09-24T23:11:33.284Z,11.12
2022-09-24T23:16:39.239Z,11.09
2022-09-24T23:21:42.927Z,11.13
2022-09-24T23:26:47.517Z,11.06
2022-09-24T23:31:52.306Z,11.06
2022-09-24T23:36:55.767Z,11.01
2022-09-24T23:41:59.193Z,10.99
2022-09-24T23:47:04.042Z,11.19
2022-09-24T23:52:07.498Z,11.14
2022-09-24T23:57:11.269Z,10.98
